Time;durP1;ratioP1;P1;durP2;ratioP2;P2;SDS_P1;SDS_P2;PMS_P1;PMS_P2;Temp;Humidity;BMP_temperature;BMP_pressure;BME280_temperature;BME280_humidity;BME280_pressure;Samples;Min_cycle;Max_cycle;Signal;HPM_P1;HPM_P2
2022/03/07 00:01:56;;;;;;;;;;;;;;;;;;5008108;28;19977;-84
2022/03/07 00:04:21;;;;;;;;;;;;;;;;;;5008716;28;19894;-86
2022/03/07 00:06:47;;;;;;;;;;;;;;;;;;5008727;28;19920;-84
2022/03/07 00:09:12;;;;;;;;;;;;;;;;;;5007845;28;20001;-88
2022/03/07 00:11:39;;;;;;;;;;;;;;;;;;5009376;28;19910;-85
2022/03/07 00:14:07;;;;;;;;;;;;;;;;;;5008217;28;19910;-87
2022/03/07 00:16:33;;;;;;;;;;;;;;;;;;5009085;28;19929;-84
2022/03/07 00:19:00;;;;;;;;;;;;;;;;;;5012157;28;19917;-84
2022/03/07 00:21:36;;;;;;;;;;;;;;;;;;5012725;28;19913;-84
2022/03/07 00:24:01;;;;;;;;;;;;;;;;;;4995725;28;19894;-84
2022/03/07 00:26:26;;;;;;;;;;;;;;;;;;5013203;28;19925;-84
2022/03/07 00:28:52;;;;;;;;;;;;;;;;;;5012107;28;19918;-84
2022/03/07 00:31:17;;;;;;;;;;;;;;;;;;4994816;28;19960;-84
2022/03/07 00:33:42;;;;;;;;;;;;;;;;;;4995579;28;20009;-85
2022/03/07 00:36:07;;;;;;;;;;;;;;;;;;4996015;28;19910;-84
2022/03/07 00:38:32;;;;;;;;;;;;;;;;;;4995063;28;19922;-84
2022/03/07 00:40:57;;;;;;;;;;;;;;;;;;4995215;28;19973;-83
2022/03/07 00:43:22;;;;;;;;;;;;;;;;;;4994743;28;19910;-84
2022/03/07 00:45:48;;;;;;;;;;;;;;;;;;4994622;28;19918;-84
2022/03/07 00:48:14;;;;;;;;;;;;;;;;;;4995841;28;19924;-85
2022/03/07 00:50:42;;;;;;;;;;;;;;;;;;4995371;28;19928;-84
2022/03/07 00:53:07;;;;;;;;;;;;;;;;;;5013049;28;20383;-86
2022/03/07 00:55:33;;;;;;;;;;;;;;;;;;5012459;28;19918;-84
2022/03/07 00:57:58;;;;;;;;;;;;;;;;;;5012473;28;19981;-85
2022/03/07 01:00:24;;;;;;;;;;;;;;;;;;4994478;28;20382;-85
2022/03/07 01:02:50;;;;;;;;;;;;;;;;;;4994420;28;19965;-82
2022/03/07 01:05:15;;;;;;;;;;;;;;;;;;4994595;28;19914;-85
2022/03/07 01:07:41;;;;;;;;;;;;;;;;;;5011858;28;19925;-84
2022/03/07 01:10:06;;;;;;;;;;;;;;;;;;4994653;28;19936;-84
2022/03/07 01:12:33;;;;;;;;;;;;;;;;;;5012234;28;19922;-83
2022/03/07 01:14:58;;;;;;;;;;;;;;;;;;4994765;28;19941;-85
2022/03/07 01:17:23;;;;;;;;;;;;;;;;;;4994742;28;20399;-85
2022/03/07 01:19:48;;;;;;;;;;;;;;;;;;4994920;28;19914;-84
2022/03/07 01:22:14;;;;;;;;;;;;;;;;;;4994129;28;19921;-86
2022/03/07 01:24:40;;;;;;;;;;;;;;;;;;5012432;28;19914;-84
2022/03/07 01:27:05;;;;;;;;;;;;;;;;;;4994376;28;20387;-84
2022/03/07 01:29:30;;;;;;;;;;;;;;;;;;4994149;28;19937;-84
2022/03/07 01:31:55;;;;;;;;;;;;;;;;;;4995041;28;19909;-85
2022/03/07 01:34:20;;;;;;;;;;;;;;;;;;4993500;28;19910;-85
2022/03/07 01:36:47;;;;;;;;;;;;;;;;;;5011918;28;20017;-84
2022/03/07 01:39:13;;;;;;;;;;;;;;;;;;5012254;28;19909;-83
2022/03/07 01:41:38;;;;;;;;;;;;;;;;;;4994232;28;19921;-85
2022/03/07 01:44:03;;;;;;;;;;;;;;;;;;5011925;28;19910;-85
2022/03/07 01:46:28;;;;;;;;;;;;;;;;;;4994520;28;19981;-84
2022/03/07 01:49:03;;;;;;;;;;;;;;;;;;5011285;28;19950;-85
2022/03/07 01:51:29;;;;;;;;;;;;;;;;;;5011681;28;20449;-85
2022/03/07 01:53:54;;;;;;;;;;;;;;;;;;4993133;28;19906;-85
2022/03/07 01:56:19;;;;;;;;;;;;;;;;;;4993595;28;19925;-85
2022/03/07 01:58:44;;;;;;;;;;;;;;;;;;5011541;28;19906;-86
2022/03/07 02:01:09;;;;;;;;;;;;;;;;;;4993987;28;19933;-84
2022/03/07 02:03:36;;;;;;;;;;;;;;;;;;4993628;28;19898;-84
2022/03/07 02:06:02;;;;;;;;;;;;;;;;;;4993840;28;19914;-87
2022/03/07 02:08:27;;;;;;;;;;;;;;;;;;4993462;28;20043;-85
2022/03/07 02:10:53;;;;;;;;;;;;;;;;;;4993782;28;19914;-84
2022/03/07 02:13:18;;;;;;;;;;;;;;;;;;4993843;28;20399;-86
2022/03/07 02:15:43;;;;;;;;;;;;;;;;;;4991663;28;19928;-86
2022/03/07 02:18:13;;;;;;;;;;;;;;;;;;4991581;28;19910;-85
2022/03/07 02:20:40;;;;;;;;;;;;;;;;;;4991671;28;19960;-86
2022/03/07 02:23:05;;;;;;;;;;;;;;;;;;5008839;28;19941;-85
2022/03/07 02:25:30;;;;;;;;;;;;;;;;;;4990909;28;19925;-85
2022/03/07 02:27:55;;;;;;;;;;;;;;;;;;5008681;28;19924;-85
2022/03/07 02:30:22;;;;;;;;;;;;;;;;;;4991656;28;19973;-86
2022/03/07 02:32:47;;;;;;;;;;;;;;;;;;4991342;28;20326;-86
2022/03/07 02:35:12;;;;;;;;;;;;;;;;;;5008662;28;20318;-84
2022/03/07 02:37:40;;;;;;;;;;;;;;;;;;5008225;28;19972;-84
2022/03/07 02:40:05;;;;;;;;;;;;;;;;;;4990893;28;19953;-84
2022/03/07 02:42:39;;;;;;;;;;;;;;;;;;4990416;28;19941;-85
2022/03/07 02:45:04;;;;;;;;;;;;;;;;;;4990426;28;19977;-84
2022/03/07 02:47:30;;;;;;;;;;;;;;;;;;5008034;28;19929;-83
2022/03/07 02:49:55;;;;;;;;;;;;;;;;;;4990553;28;19910;-84
2022/03/07 02:52:20;;;;;;;;;;;;;;;;;;4990477;28;19916;-83
2022/03/07 02:54:45;;;;;;;;;;;;;;;;;;4991069;28;19965;-84
2022/03/07 02:57:11;;;;;;;;;;;;;;;;;;5008827;28;19918;-84
2022/03/07 02:59:36;;;;;;;;;;;;;;;;;;4991960;28;19909;-84
2022/03/07 03:02:02;;;;;;;;;;;;;;;;;;5009305;28;19916;-86
2022/03/07 03:04:29;;;;;;;;;;;;;;;;;;4992279;28;20008;-85
2022/03/07 03:06:54;;;;;;;;;;;;;;;;;;5009704;28;19938;-84
2022/03/07 03:09:21;;;;;;;;;;;;;;;;;;5009704;28;19929;-84
2022/03/07 03:11:46;;;;;;;;;;;;;;;;;;4993030;28;19910;-85
2022/03/07 03:14:12;;;;;;;;;;;;;;;;;;4992417;28;19913;-84
2022/03/07 03:16:54;;;;;;;;;;;;;;;;;;5010046;28;19929;-85
2022/03/07 03:19:20;;;;;;;;;;;;;;;;;;5009537;28;19977;-85
2022/03/07 03:21:45;;;;;;;;;;;;;;;;;;4991868;28;20380;-85
2022/03/07 03:24:12;;;;;;;;;;;;;;;;;;5009726;28;19914;-84
2022/03/07 03:26:37;;;;;;;;;;;;;;;;;;5009711;28;19914;-83
2022/03/07 03:29:02;;;;;;;;;;;;;;;;;;4991748;28;19928;-85
2022/03/07 03:31:27;;;;;;;;;;;;;;;;;;4991796;28;19905;-85
2022/03/07 03:33:53;;;;;;;;;;;;;;;;;;4991684;28;19941;-85
2022/03/07 03:36:18;;;;;;;;;;;;;;;;;;4990965;28;20052;-84
2022/03/07 03:38:43;;;;;;;;;;;;;;;;;;5008350;28;19921;-84
2022/03/07 03:41:10;;;;;;;;;;;;;;;;;;5008435;28;20473;-82
2022/03/07 03:43:37;;;;;;;;;;;;;;;;;;4991740;28;19951;-85
2022/03/07 03:46:02;;;;;;;;;;;;;;;;;;4991078;28;19914;-84
2022/03/07 03:48:27;;;;;;;;;;;;;;;;;;4991331;28;19917;-84
2022/03/07 03:50:52;;;;;;;;;;;;;;;;;;4990791;28;19909;-84
2022/03/07 03:53:17;;;;;;;;;;;;;;;;;;4990718;28;20418;-83
2022/03/07 03:55:42;;;;;;;;;;;;;;;;;;4991952;28;19921;-86
2022/03/07 03:58:07;;;;;;;;;;;;;;;;;;5008409;28;19985;-84
2022/03/07 04:00:32;;;;;;;;;;;;;;;;;;4990927;28;19916;-85
2022/03/07 04:02:57;;;;;;;;;;;;;;;;;;4991011;28;19910;-85
2022/03/07 04:05:23;;;;;;;;;;;;;;;;;;5008160;28;19914;-84
2022/03/07 04:07:49;;;;;;;;;;;;;;;;;;4991266;28;19917;-85
2022/03/07 04:10:17;;;;;;;;;;;;;;;;;;5010212;28;19894;-84
2022/03/07 04:12:43;;;;;;;;;;;;;;;;;;4992635;28;20371;-84
2022/03/07 04:15:08;;;;;;;;;;;;;;;;;;4992358;28;19925;-85
2022/03/07 04:17:34;;;;;;;;;;;;;;;;;;4992415;28;19973;-83
2022/03/07 04:20:00;;;;;;;;;;;;;;;;;;4992870;28;19924;-85
2022/03/07 04:22:25;;;;;;;;;;;;;;;;;;5009898;28;19914;-84
2022/03/07 04:24:51;;;;;;;;;;;;;;;;;;4992043;28;19920;-83
2022/03/07 04:27:16;;;;;;;;;;;;;;;;;;4992468;28;20324;-83
2022/03/07 04:29:41;;;;;;;;;;;;;;;;;;5009802;28;19917;-84
2022/03/07 04:32:06;;;;;;;;;;;;;;;;;;4992715;28;19910;-84
2022/03/07 04:34:32;;;;;;;;;;;;;;;;;;4992151;28;19941;-84
2022/03/07 04:36:57;;;;;;;;;;;;;;;;;;4992358;28;19910;-84
2022/03/07 04:39:23;;;;;;;;;;;;;;;;;;4991880;28;19920;-83
2022/03/07 04:41:48;;;;;;;;;;;;;;;;;;4992134;28;19976;-83
2022/03/07 04:44:14;;;;;;;;;;;;;;;;;;5009143;28;19914;-84
2022/03/07 04:46:39;;;;;;;;;;;;;;;;;;4992509;28;20356;-84
2022/03/07 04:49:04;;;;;;;;;;;;;;;;;;4992355;28;19924;-83
2022/03/07 04:51:29;;;;;;;;;;;;;;;;;;4991892;28;19914;-84
2022/03/07 04:53:54;;;;;;;;;;;;;;;;;;4992184;28;19910;-83
2022/03/07 04:56:22;;;;;;;;;;;;;;;;;;5009221;28;19941;-84
2022/03/07 04:58:47;;;;;;;;;;;;;;;;;;4991990;28;19910;-82
2022/03/07 05:01:14;;;;;;;;;;;;;;;;;;5009689;28;19913;-84
2022/03/07 05:03:39;;;;;;;;;;;;;;;;;;4993257;28;19929;-84
2022/03/07 05:06:06;;;;;;;;;;;;;;;;;;4995423;28;19916;-84
2022/03/07 05:08:31;;;;;;;;;;;;;;;;;;4995360;28;19906;-84
2022/03/07 05:10:57;;;;;;;;;;;;;;;;;;4995114;28;20000;-84
2022/03/07 05:13:24;;;;;;;;;;;;;;;;;;4995079;28;19914;-85
2022/03/07 05:15:49;;;;;;;;;;;;;;;;;;5011822;28;19922;-84
2022/03/07 05:18:16;;;;;;;;;;;;;;;;;;5011222;28;19917;-84
2022/03/07 05:20:42;;;;;;;;;;;;;;;;;;5012271;28;20004;-84
2022/03/07 05:23:07;;;;;;;;;;;;;;;;;;4995356;28;19973;-84
2022/03/07 05:25:32;;;;;;;;;;;;;;;;;;4995028;28;19922;-84
2022/03/07 05:27:58;;;;;;;;;;;;;;;;;;5012081;28;19925;-84
2022/03/07 05:30:35;;;;;;;;;;;;;;;;;;4994721;28;19910;-84
2022/03/07 05:33:00;;;;;;;;;;;;;;;;;;4995300;28;19982;-85
2022/03/07 05:35:25;;;;;;;;;;;;;;;;;;4995311;28;19981;-84
2022/03/07 05:38:00;;;;;;;;;;;;;;;;;;5012194;28;19913;-84
2022/03/07 05:40:26;;;;;;;;;;;;;;;;;;4995230;28;20335;-85
2022/03/07 05:42:51;;;;;;;;;;;;;;;;;;4994958;28;19909;-85
2022/03/07 05:45:18;;;;;;;;;;;;;;;;;;5011512;28;19969;-84
2022/03/07 05:47:43;;;;;;;;;;;;;;;;;;4994001;28;19909;-81
2022/03/07 05:50:09;;;;;;;;;;;;;;;;;;5008864;28;20016;-84
2022/03/07 05:52:35;;;;;;;;;;;;;;;;;;4990134;28;19968;-84
2022/03/07 05:55:03;;;;;;;;;;;;;;;;;;4990956;28;19913;-85
2022/03/07 05:57:32;;;;;;;;;;;;;;;;;;5008151;28;19981;-84
2022/03/07 06:00:00;;;;;;;;;;;;;;;;;;5008056;28;19921;-85
2022/03/07 06:02:25;;;;;;;;;;;;;;;;;;4990353;28;19913;-85
2022/03/07 06:04:52;;;;;;;;;;;;;;;;;;5006985;28;19897;-82
2022/03/07 06:07:17;;;;;;;;;;;;;;;;;;5007457;28;19914;-84
2022/03/07 06:09:42;;;;;;;;;;;;;;;;;;4989737;28;19921;-87
2022/03/07 06:12:08;;;;;;;;;;;;;;;;;;5006780;28;19921;-83
2022/03/07 06:14:33;;;;;;;;;;;;;;;;;;4989122;28;19914;-82
2022/03/07 06:16:58;;;;;;;;;;;;;;;;;;5007458;28;19925;-82
2022/03/07 06:19:23;;;;;;;;;;;;;;;;;;5007854;28;19910;-83
2022/03/07 06:21:50;;;;;;;;;;;;;;;;;;5008223;28;19913;-83
2022/03/07 06:24:16;;;;;;;;;;;;;;;;;;5008011;28;19910;-86
2022/03/07 06:26:41;;;;;;;;;;;;;;;;;;4990001;28;19918;-85
2022/03/07 06:29:06;;;;;;;;;;;;;;;;;;5007018;28;19918;-84
2022/03/07 06:31:31;;;;;;;;;;;;;;;;;;4990574;28;19910;-87
2022/03/07 06:33:56;;;;;;;;;;;;;;;;;;5008000;28;20270;-87
2022/03/07 06:36:22;;;;;;;;;;;;;;;;;;4990610;28;20355;-86
2022/03/07 06:38:47;;;;;;;;;;;;;;;;;;5008236;28;19992;-86
2022/03/07 06:41:12;;;;;;;;;;;;;;;;;;4991160;28;19969;-87
2022/03/07 06:43:38;;;;;;;;;;;;;;;;;;5007480;28;20005;-88
2022/03/07 06:46:05;;;;;;;;;;;;;;;;;;4989989;28;19909;-82
2022/03/07 06:48:30;;;;;;;;;;;;;;;;;;4990492;28;19918;-85
2022/03/07 06:53:25;;;;;;;;;;;;;;;;;;5007595;28;19949;-87
2022/03/07 06:55:53;;;;;;;;;;;;;;;;;;4990640;28;19922;-86
2022/03/07 06:58:18;;;;;;;;;;;;;;;;;;4990628;28;19917;-85
2022/03/07 07:00:44;;;;;;;;;;;;;;;;;;4989503;28;19910;-86
2022/03/07 07:03:09;;;;;;;;;;;;;;;;;;5008580;28;19914;-88
2022/03/07 07:05:34;;;;;;;;;;;;;;;;;;4991223;28;19910;-85
2022/03/07 07:08:03;;;;;;;;;;;;;;;;;;4991430;28;19925;-85
2022/03/07 07:10:28;;;;;;;;;;;;;;;;;;5008373;28;19916;-85
2022/03/07 07:12:53;;;;;;;;;;;;;;;;;;4990024;28;19910;-86
2022/03/07 07:15:19;;;;;;;;;;;;;;;;;;5006819;28;20383;-84
2022/03/07 07:17:44;;;;;;;;;;;;;;;;;;4989061;28;19909;-85
2022/03/07 07:20:14;;;;;;;;;;;;;;;;;;5005956;28;20403;-84
2022/03/07 07:22:40;;;;;;;;;;;;;;;;;;4990507;28;19921;-85
2022/03/07 07:25:05;;;;;;;;;;;;;;;;;;4989992;28;19910;-84
2022/03/07 07:27:30;;;;;;;;;;;;;;;;;;4988632;28;19910;-87
2022/03/07 07:29:55;;;;;;;;;;;;;;;;;;4987913;28;19910;-87
2022/03/07 07:32:22;;;;;;;;;;;;;;;;;;4987246;28;20387;-87
2022/03/07 07:34:47;;;;;;;;;;;;;;;;;;5004836;28;19910;-85
2022/03/07 07:37:13;;;;;;;;;;;;;;;;;;5005617;28;19941;-87
2022/03/07 07:39:38;;;;;;;;;;;;;;;;;;4988342;28;19910;-87
2022/03/07 07:42:03;;;;;;;;;;;;;;;;;;4987743;28;19910;-87
2022/03/07 07:44:29;;;;;;;;;;;;;;;;;;4987568;28;19910;-88
2022/03/07 07:46:54;;;;;;;;;;;;;;;;;;4987873;28;19949;-86
2022/03/07 07:49:23;;;;;;;;;;;;;;;;;;5006111;28;19917;-83
2022/03/07 07:51:48;;;;;;;;;;;;;;;;;;5005387;28;19910;-85
2022/03/07 07:54:14;;;;;;;;;;;;;;;;;;5004871;28;19956;-84
2022/03/07 07:56:40;;;;;;;;;;;;;;;;;;5006446;28;19921;-84
2022/03/07 07:59:06;;;;;;;;;;;;;;;;;;4989499;28;19916;-83
2022/03/07 08:01:33;;;;;;;;;;;;;;;;;;5006215;28;19952;-83
2022/03/07 08:03:59;;;;;;;;;;;;;;;;;;4989555;28;19940;-83
2022/03/07 08:06:25;;;;;;;;;;;;;;;;;;4988094;28;20000;-83
2022/03/07 08:08:50;;;;;;;;;;;;;;;;;;4984971;28;19969;-86
2022/03/07 08:11:17;;;;;;;;;;;;;;;;;;4969471;28;19959;-84
2022/03/07 08:13:42;;;;;;;;;;;;;;;;;;4987381;28;19937;-86
2022/03/07 08:16:10;;;;;;;;;;;;;;;;;;4986327;28;20327;-81
2022/03/07 08:18:36;;;;;;;;;;;;;;;;;;4985005;28;19917;-84
2022/03/07 08:21:01;;;;;;;;;;;;;;;;;;4967992;28;19911;-84
2022/03/07 08:23:26;;;;;;;;;;;;;;;;;;4968778;28;19965;-82
2022/03/07 08:25:51;;;;;;;;;;;;;;;;;;4967945;28;19914;-83
2022/03/07 08:28:18;;;;;;;;;;;;;;;;;;4985104;28;19921;-81
2022/03/07 08:30:43;;;;;;;;;;;;;;;;;;4967526;28;19941;-81
2022/03/07 08:33:08;;;;;;;;;;;;;;;;;;4967429;28;19921;-83
2022/03/07 08:35:33;;;;;;;;;;;;;;;;;;4967834;28;19910;-83
2022/03/07 08:37:59;;;;;;;;;;;;;;;;;;4986797;28;19925;-82
2022/03/07 08:40:24;;;;;;;;;;;;;;;;;;4989838;28;19910;-83
2022/03/07 08:42:49;;;;;;;;;;;;;;;;;;4971858;28;19914;-85
2022/03/07 08:45:14;;;;;;;;;;;;;;;;;;4972746;28;19910;-82
2022/03/07 08:47:42;;;;;;;;;;;;;;;;;;4972876;28;19918;-83
2022/03/07 08:50:08;;;;;;;;;;;;;;;;;;4990310;28;19934;-83
2022/03/07 08:52:33;;;;;;;;;;;;;;;;;;4990694;28;19910;-84
2022/03/07 08:55:00;;;;;;;;;;;;;;;;;;4991201;28;20005;-82
2022/03/07 08:57:25;;;;;;;;;;;;;;;;;;4972580;28;19917;-83
2022/03/07 08:59:52;;;;;;;;;;;;;;;;;;4991089;28;19917;-88
2022/03/07 09:02:19;;;;;;;;;;;;;;;;;;4990733;28;19910;-86
2022/03/07 09:04:47;;;;;;;;;;;;;;;;;;4973601;28;19918;-86
2022/03/07 09:07:12;;;;;;;;;;;;;;;;;;4972566;28;19910;-84
2022/03/07 09:09:40;;;;;;;;;;;;;;;;;;5018188;28;19941;-85
2022/03/07 09:12:07;;;;;;;;;;;;;;;;;;4998850;28;20264;-84
2022/03/07 09:14:33;;;;;;;;;;;;;;;;;;5024771;28;19917;-86
2022/03/07 09:16:59;;;;;;;;;;;;;;;;;;4990615;28;19930;-83
2022/03/07 09:19:24;;;;;;;;;;;;;;;;;;4993673;28;19940;-84
2022/03/07 09:21:49;;;;;;;;;;;;;;;;;;4994008;28;19920;-84
2022/03/07 09:24:15;;;;;;;;;;;;;;;;;;5009690;28;19910;-86
2022/03/07 09:26:40;;;;;;;;;;;;;;;;;;5008833;28;20398;-85
2022/03/07 09:29:05;;;;;;;;;;;;;;;;;;4990642;28;19934;-82
2022/03/07 09:31:30;;;;;;;;;;;;;;;;;;4990658;28;19953;-85
2022/03/07 09:33:55;;;;;;;;;;;;;;;;;;4991365;28;19914;-87
2022/03/07 09:36:20;;;;;;;;;;;;;;;;;;4991586;28;19914;-87
2022/03/07 09:38:46;;;;;;;;;;;;;;;;;;5008954;28;19910;-87
2022/03/07 09:41:18;;;;;;;;;;;;;;;;;;5009068;28;19914;-87
2022/03/07 09:43:44;;;;;;;;;;;;;;;;;;4991558;28;19929;-86
2022/03/07 09:46:11;;;;;;;;;;;;;;;;;;4992028;28;19984;-89
2022/03/07 09:48:37;;;;;;;;;;;;;;;;;;5019210;28;19964;-87
2022/03/07 09:51:03;;;;;;;;;;;;;;;;;;5019826;28;19921;-86
2022/03/07 09:53:28;;;;;;;;;;;;;;;;;;5025207;28;19909;-85
2022/03/07 09:55:53;;;;;;;;;;;;;;;;;;5010898;28;19920;-88
2022/03/07 09:58:18;;;;;;;;;;;;;;;;;;5017170;28;20036;-87
2022/03/07 10:00:44;;;;;;;;;;;;;;;;;;5013801;28;19909;-87
2022/03/07 10:03:09;;;;;;;;;;;;;;;;;;5026847;28;19914;-88
2022/03/07 10:05:35;;;;;;;;;;;;;;;;;;5010538;28;19911;-87
2022/03/07 10:08:00;;;;;;;;;;;;;;;;;;4996874;28;19922;-88
2022/03/07 10:10:25;;;;;;;;;;;;;;;;;;4988949;28;20372;-85
2022/03/07 10:12:50;;;;;;;;;;;;;;;;;;5013255;28;20390;-86
2022/03/07 10:15:16;;;;;;;;;;;;;;;;;;5017576;28;19920;-89
2022/03/07 10:17:41;;;;;;;;;;;;;;;;;;4996707;28;20347;-87
2022/03/07 10:20:07;;;;;;;;;;;;;;;;;;5008823;28;19914;-87
2022/03/07 10:22:33;;;;;;;;;;;;;;;;;;5017190;28;19913;-88
2022/03/07 10:24:58;;;;;;;;;;;;;;;;;;4997344;28;19977;-88
2022/03/07 10:27:23;;;;;;;;;;;;;;;;;;5015000;28;19920;-81
2022/03/07 10:29:49;;;;;;;;;;;;;;;;;;5012926;28;19998;-86
2022/03/07 10:32:14;;;;;;;;;;;;;;;;;;5008186;28;19914;-84
2022/03/07 10:34:40;;;;;;;;;;;;;;;;;;5023493;28;19924;-87
2022/03/07 10:37:08;;;;;;;;;;;;;;;;;;5006486;28;20027;-88
2022/03/07 10:39:36;;;;;;;;;;;;;;;;;;5013084;28;19909;-88
2022/03/07 10:42:01;;;;;;;;;;;;;;;;;;5014211;28;19996;-87
2022/03/07 10:44:26;;;;;;;;;;;;;;;;;;5026325;28;19913;-88
2022/03/07 10:46:51;;;;;;;;;;;;;;;;;;5007891;28;19926;-86
2022/03/07 10:49:16;;;;;;;;;;;;;;;;;;5008665;28;19943;-88
2022/03/07 10:51:43;;;;;;;;;;;;;;;;;;5020188;28;19909;-85
2022/03/07 10:54:08;;;;;;;;;;;;;;;;;;5001253;28;19910;-86
2022/03/07 10:56:36;;;;;;;;;;;;;;;;;;4998137;28;19916;-85
2022/03/07 10:59:02;;;;;;;;;;;;;;;;;;5010536;28;19914;-87
2022/03/07 11:01:30;;;;;;;;;;;;;;;;;;5003196;28;19923;-86
2022/03/07 11:03:56;;;;;;;;;;;;;;;;;;5007480;28;19910;-87
2022/03/07 11:06:21;;;;;;;;;;;;;;;;;;4987577;28;19933;-87
2022/03/07 11:08:53;;;;;;;;;;;;;;;;;;4991857;28;20286;-86
2022/03/07 11:11:18;;;;;;;;;;;;;;;;;;4990889;28;19953;-83
2022/03/07 11:13:45;;;;;;;;;;;;;;;;;;5006026;28;19911;-87
2022/03/07 11:16:10;;;;;;;;;;;;;;;;;;5018372;28;19921;-87
2022/03/07 11:18:35;;;;;;;;;;;;;;;;;;5020709;28;19906;-87
2022/03/07 11:21:02;;;;;;;;;;;;;;;;;;5014187;28;19956;-87
2022/03/07 11:23:27;;;;;;;;;;;;;;;;;;4998054;28;19897;-86
2022/03/07 11:25:52;;;;;;;;;;;;;;;;;;5025860;28;20004;-84
2022/03/07 11:28:17;;;;;;;;;;;;;;;;;;5024925;28;19917;-83
2022/03/07 11:30:45;;;;;;;;;;;;;;;;;;5013445;28;20146;-81
2022/03/07 11:33:10;;;;;;;;;;;;;;;;;;5030227;23;19934;-85
2022/03/07 11:35:36;;;;;;;;;;;;;;;;;;5009580;28;19921;-88
2022/03/07 11:40:26;;;;;;;;;;;;;;;;;;5045223;23;19934;-84
2022/03/07 11:45:20;;;;;;;;;;;;;;;;;;5029802;28;19909;-82
2022/03/07 11:47:45;;;;;;;;;;;;;;;;;;5010444;28;19918;-84
2022/03/07 11:50:11;;;;;;;;;;;;;;;;;;5011150;28;19921;-85
2022/03/07 11:52:36;;;;;;;;;;;;;;;;;;5011296;28;19993;-83
2022/03/07 11:55:01;;;;;;;;;;;;;;;;;;5028983;28;20003;-86
2022/03/07 11:57:26;;;;;;;;;;;;;;;;;;5028971;28;19937;-88
2022/03/07 11:59:51;;;;;;;;;;;;;;;;;;5024709;23;19932;-88
2022/03/07 12:02:16;;;;;;;;;;;;;;;;;;5025285;28;19929;-86
2022/03/07 12:04:41;;;;;;;;;;;;;;;;;;5025152;28;19909;-87
2022/03/07 12:07:08;;;;;;;;;;;;;;;;;;5025129;28;19916;-87
2022/03/07 12:09:33;;;;;;;;;;;;;;;;;;5025555;28;19924;-87
2022/03/07 12:11:58;;;;;;;;;;;;;;;;;;5025881;28;19909;-88
2022/03/07 12:14:23;;;;;;;;;;;;;;;;;;5029523;28;19916;-88
2022/03/07 12:16:49;;;;;;;;;;;;;;;;;;5031184;28;19909;-84
2022/03/07 12:19:14;;;;;;;;;;;;;;;;;;5030169;28;20466;-89
2022/03/07 12:21:43;;;;;;;;;;;;;;;;;;5031555;28;19909;-88
2022/03/07 12:24:08;;;;;;;;;;;;;;;;;;5030816;28;19910;-87
2022/03/07 12:26:33;;;;;;;;;;;;;;;;;;5028415;28;19910;-87
2022/03/07 12:28:58;;;;;;;;;;;;;;;;;;5027792;28;19925;-88
2022/03/07 12:31:32;;;;;;;;;;;;;;;;;;5029569;28;19964;-87
2022/03/07 12:33:57;;;;;;;;;;;;;;;;;;5028709;28;19920;-87
2022/03/07 12:36:22;;;;;;;;;;;;;;;;;;5027703;28;19917;-84
2022/03/07 12:38:47;;;;;;;;;;;;;;;;;;5028121;28;19920;-89
2022/03/07 12:41:13;;;;;;;;;;;;;;;;;;5028120;28;19956;-87
2022/03/07 12:43:38;;;;;;;;;;;;;;;;;;5028787;28;19975;-85
2022/03/07 12:46:04;;;;;;;;;;;;;;;;;;5028795;28;19921;-87
2022/03/07 12:48:30;;;;;;;;;;;;;;;;;;5027824;28;19925;-87
2022/03/07 12:50:55;;;;;;;;;;;;;;;;;;5029002;28;19921;-89
2022/03/07 12:53:20;;;;;;;;;;;;;;;;;;5027396;28;19909;-86
2022/03/07 12:55:45;;;;;;;;;;;;;;;;;;5027873;28;20409;-86
2022/03/07 12:58:18;;;;;;;;;;;;;;;;;;5027440;28;19944;-86
2022/03/07 13:00:43;;;;;;;;;;;;;;;;;;5041725;28;19925;-85
2022/03/07 13:03:08;;;;;;;;;;;;;;;;;;5045185;28;19914;-87
2022/03/07 13:05:33;;;;;;;;;;;;;;;;;;5044970;28;19913;-87
2022/03/07 13:07:58;;;;;;;;;;;;;;;;;;5029399;28;19921;-87
2022/03/07 13:10:23;;;;;;;;;;;;;;;;;;5044439;28;19910;-88
2022/03/07 13:12:48;;;;;;;;;;;;;;;;;;5044529;28;19913;-86
2022/03/07 13:15:14;;;;;;;;;;;;;;;;;;5045349;28;19914;-86
2022/03/07 13:17:39;;;;;;;;;;;;;;;;;;5029412;28;20330;-87
2022/03/07 13:20:04;;;;;;;;;;;;;;;;;;5044577;28;19932;-87
2022/03/07 13:22:29;;;;;;;;;;;;;;;;;;5044096;28;19916;-86
2022/03/07 13:24:54;;;;;;;;;;;;;;;;;;5042869;28;19921;-89
2022/03/07 13:27:20;;;;;;;;;;;;;;;;;;5044820;28;19909;-87
2022/03/07 13:29:46;;;;;;;;;;;;;;;;;;5044608;28;19925;-86
2022/03/07 13:32:11;;;;;;;;;;;;;;;;;;5044170;28;20003;-88
2022/03/07 13:34:36;;;;;;;;;;;;;;;;;;5044022;28;19909;-89
2022/03/07 13:37:01;;;;;;;;;;;;;;;;;;5043652;28;19916;-85
2022/03/07 13:39:26;;;;;;;;;;;;;;;;;;5028049;28;19917;-86
2022/03/07 13:41:53;;;;;;;;;;;;;;;;;;5029152;28;19913;-85
2022/03/07 13:44:18;;;;;;;;;;;;;;;;;;5039592;28;19913;-85
2022/03/07 13:46:45;;;;;;;;;;;;;;;;;;5042944;28;19987;-83
2022/03/07 13:49:10;;;;;;;;;;;;;;;;;;5043610;28;19918;-84
2022/03/07 13:51:36;;;;;;;;;;;;;;;;;;5037414;28;19901;-83
2022/03/07 13:54:01;;;;;;;;;;;;;;;;;;5047391;28;19913;-82
2022/03/07 13:56:26;;;;;;;;;;;;;;;;;;5035695;28;19963;-86
2022/03/07 13:58:51;;;;;;;;;;;;;;;;;;5037073;28;19921;-85
2022/03/07 14:01:16;;;;;;;;;;;;;;;;;;5033047;28;20282;-84
2022/03/07 14:03:42;;;;;;;;;;;;;;;;;;5032763;28;19993;-85
2022/03/07 14:06:08;;;;;;;;;;;;;;;;;;5023280;28;19910;-83
2022/03/07 14:08:33;;;;;;;;;;;;;;;;;;5037331;28;19901;-86
2022/03/07 14:11:02;;;;;;;;;;;;;;;;;;5027135;28;19910;-84
2022/03/07 14:13:30;;;;;;;;;;;;;;;;;;5027220;28;19913;-84
2022/03/07 14:15:55;;;;;;;;;;;;;;;;;;5015645;28;20359;-85
2022/03/07 14:18:22;;;;;;;;;;;;;;;;;;5038987;28;20398;-86
2022/03/07 14:20:49;;;;;;;;;;;;;;;;;;5022943;28;19932;-83
2022/03/07 14:23:18;;;;;;;;;;;;;;;;;;5031894;28;20354;-85
2022/03/07 14:25:46;;;;;;;;;;;;;;;;;;5040247;28;19917;-81
2022/03/07 14:28:12;;;;;;;;;;;;;;;;;;5032044;28;19933;-85
2022/03/07 14:30:37;;;;;;;;;;;;;;;;;;5033842;28;19910;-83
2022/03/07 14:33:02;;;;;;;;;;;;;;;;;;5031319;28;19916;-83
2022/03/07 14:35:29;;;;;;;;;;;;;;;;;;5037749;28;19917;-85
2022/03/07 14:37:55;;;;;;;;;;;;;;;;;;5026964;28;19917;-85
2022/03/07 14:40:24;;;;;;;;;;;;;;;;;;5033613;28;20012;-82
2022/03/07 14:42:52;;;;;;;;;;;;;;;;;;5023629;28;20376;-84
2022/03/07 14:45:20;;;;;;;;;;;;;;;;;;5033501;28;19914;-86
2022/03/07 14:47:45;;;;;;;;;;;;;;;;;;5024360;28;19914;-85
2022/03/07 14:50:12;;;;;;;;;;;;;;;;;;5030555;28;19909;-86
2022/03/07 14:52:40;;;;;;;;;;;;;;;;;;5036529;28;19931;-87
2022/03/07 14:55:09;;;;;;;;;;;;;;;;;;5016799;28;19920;-85
2022/03/07 14:57:34;;;;;;;;;;;;;;;;;;5018661;28;19937;-86
2022/03/07 15:00:06;;;;;;;;;;;;;;;;;;5035905;28;20279;-83
2022/03/07 15:02:32;;;;;;;;;;;;;;;;;;5038154;28;19916;-83
2022/03/07 15:04:57;;;;;;;;;;;;;;;;;;5030560;28;19909;-85
2022/03/07 15:07:22;;;;;;;;;;;;;;;;;;5041340;28;20258;-82
2022/03/07 15:09:49;;;;;;;;;;;;;;;;;;5036045;28;19932;-81
2022/03/07 15:12:14;;;;;;;;;;;;;;;;;;5024411;28;19951;-84
2022/03/07 15:14:51;;;;;;;;;;;;;;;;;;5029968;28;19913;-84
2022/03/07 15:17:16;;;;;;;;;;;;;;;;;;5026408;28;20341;-83
2022/03/07 15:19:44;;;;;;;;;;;;;;;;;;5040977;28;19916;-83
2022/03/07 15:22:10;;;;;;;;;;;;;;;;;;5031723;28;19920;-85
2022/03/07 15:24:36;;;;;;;;;;;;;;;;;;5040717;28;20267;-80
2022/03/07 15:27:04;;;;;;;;;;;;;;;;;;5031877;28;19913;-82
2022/03/07 15:29:30;;;;;;;;;;;;;;;;;;5037899;28;20247;-81
2022/03/07 15:31:55;;;;;;;;;;;;;;;;;;5016204;28;20387;-81
2022/03/07 15:34:20;;;;;;;;;;;;;;;;;;5025666;28;20025;-82
2022/03/07 15:36:45;;;;;;;;;;;;;;;;;;5029867;28;19945;-83
2022/03/07 15:39:12;;;;;;;;;;;;;;;;;;5028293;28;19984;-84
2022/03/07 15:41:37;;;;;;;;;;;;;;;;;;5038437;28;19924;-83
2022/03/07 15:44:03;;;;;;;;;;;;;;;;;;5032258;28;19910;-83
2022/03/07 15:46:28;;;;;;;;;;;;;;;;;;5027689;28;19932;-83
2022/03/07 15:48:53;;;;;;;;;;;;;;;;;;5025187;28;20023;-84
2022/03/07 15:51:18;;;;;;;;;;;;;;;;;;5032189;28;19925;-83
2022/03/07 15:53:43;;;;;;;;;;;;;;;;;;5032123;28;20355;-83
2022/03/07 15:56:10;;;;;;;;;;;;;;;;;;5035124;28;19910;-80
2022/03/07 15:58:39;;;;;;;;;;;;;;;;;;5019151;28;19914;-83
2022/03/07 16:01:05;;;;;;;;;;;;;;;;;;5021567;28;20019;-82
2022/03/07 16:03:30;;;;;;;;;;;;;;;;;;5036434;28;20386;-81
2022/03/07 16:05:55;;;;;;;;;;;;;;;;;;5034055;28;19940;-83
2022/03/07 16:08:20;;;;;;;;;;;;;;;;;;5033544;28;19917;-82
2022/03/07 16:10:45;;;;;;;;;;;;;;;;;;5039304;28;19909;-83
2022/03/07 16:13:11;;;;;;;;;;;;;;;;;;5043030;28;19997;-82
2022/03/07 16:15:38;;;;;;;;;;;;;;;;;;5044835;28;19913;-82
2022/03/07 16:18:05;;;;;;;;;;;;;;;;;;5042791;28;19916;-83
2022/03/07 16:20:30;;;;;;;;;;;;;;;;;;5044082;28;20000;-84
2022/03/07 16:22:55;;;;;;;;;;;;;;;;;;5043613;28;19914;-83
2022/03/07 16:25:20;;;;;;;;;;;;;;;;;;5044566;28;19909;-86
2022/03/07 16:27:47;;;;;;;;;;;;;;;;;;5044710;28;19920;-86
2022/03/07 16:30:12;;;;;;;;;;;;;;;;;;5044303;28;20017;-81
2022/03/07 16:32:37;;;;;;;;;;;;;;;;;;5043132;28;19909;-84
2022/03/07 16:35:05;;;;;;;;;;;;;;;;;;5044523;28;19916;-84
2022/03/07 16:37:30;;;;;;;;;;;;;;;;;;5042553;28;19916;-84
2022/03/07 16:39:56;;;;;;;;;;;;;;;;;;5043624;28;19909;-83
2022/03/07 16:42:22;;;;;;;;;;;;;;;;;;5042814;28;19932;-84
2022/03/07 16:44:48;;;;;;;;;;;;;;;;;;5044098;28;19996;-82